sensor_id;sensor_type;location;lat;lon;timestamp;P1;durP1;ratioP1;P2;durP2;ratioP2
32228;SDS011;18717;48.034;11.186;2022-08-19T00:02:17;19.45;;;17.73;;
32228;SDS011;18717;48.034;11.186;2022-08-19T00:04:45;19.13;;;17.52;;
32228;SDS011;18717;48.034;11.186;2022-08-19T00:07:14;19.15;;;17.45;;
32228;SDS011;18717;48.034;11.186;2022-08-19T00:09:43;19.83;;;17.90;;
32228;SDS011;18717;48.034;11.186;2022-08-19T00:12:11;19.25;;;17.65;;
32228;SDS011;18717;48.034;11.186;2022-08-19T00:14:39;19.60;;;17.80;;
32228;SDS011;18717;48.034;11.186;2022-08-19T00:17:07;19.35;;;17.75;;
32228;SDS011;18717;48.034;11.186;2022-08-19T00:19:36;19.52;;;17.73;;
32228;SDS011;18717;48.034;11.186;2022-08-19T00:22:04;19.35;;;17.63;;
32228;SDS011;18717;48.034;11.186;2022-08-19T00:24:32;19.83;;;18.13;;
32228;SDS011;18717;48.034;11.186;2022-08-19T00:27:02;19.38;;;17.67;;
32228;SDS011;18717;48.034;11.186;2022-08-19T00:29:49;18.30;;;16.77;;
32228;SDS011;18717;48.034;11.186;2022-08-19T00:32:18;20.40;;;18.73;;
32228;SDS011;18717;48.034;11.186;2022-08-19T00:34:46;20.35;;;18.55;;
32228;SDS011;18717;48.034;11.186;2022-08-19T00:37:13;23.42;;;19.55;;
32228;SDS011;18717;48.034;11.186;2022-08-19T00:39:41;20.70;;;18.70;;
32228;SDS011;18717;48.034;11.186;2022-08-19T00:42:10;20.95;;;19.05;;
32228;SDS011;18717;48.034;11.186;2022-08-19T00:44:41;20.17;;;18.27;;
32228;SDS011;18717;48.034;11.186;2022-08-19T00:47:09;20.08;;;18.23;;
32228;SDS011;18717;48.034;11.186;2022-08-19T00:49:41;20.40;;;18.42;;
32228;SDS011;18717;48.034;11.186;2022-08-19T00:54:40;20.80;;;19.02;;
32228;SDS011;18717;48.034;11.186;2022-08-19T00:57:11;20.73;;;18.85;;
32228;SDS011;18717;48.034;11.186;2022-08-19T00:59:40;19.92;;;18.23;;
32228;SDS011;18717;48.034;11.186;2022-08-19T01:02:29;20.33;;;18.52;;
32228;SDS011;18717;48.034;11.186;2022-08-19T01:04:57;19.92;;;17.85;;
32228;SDS011;18717;48.034;11.186;2022-08-19T01:07:25;20.80;;;19.00;;
32228;SDS011;18717;48.034;11.186;2022-08-19T01:09:52;19.00;;;17.25;;
32228;SDS011;18717;48.034;11.186;2022-08-19T01:12:22;20.92;;;18.83;;
32228;SDS011;18717;48.034;11.186;2022-08-19T01:14:50;20.13;;;18.48;;
32228;SDS011;18717;48.034;11.186;2022-08-19T01:17:18;19.83;;;18.02;;
32228;SDS011;18717;48.034;11.186;2022-08-19T01:19:46;20.27;;;18.33;;
32228;SDS011;18717;48.034;11.186;2022-08-19T01:22:16;20.15;;;18.27;;
32228;SDS011;18717;48.034;11.186;2022-08-19T01:24:58;19.48;;;17.73;;
32228;SDS011;18717;48.034;11.186;2022-08-19T01:27:25;19.30;;;17.70;;
32228;SDS011;18717;48.034;11.186;2022-08-19T01:30:06;19.77;;;17.95;;
32228;SDS011;18717;48.034;11.186;2022-08-19T01:32:34;20.90;;;19.10;;
32228;SDS011;18717;48.034;11.186;2022-08-19T01:35:02;18.02;;;16.55;;
32228;SDS011;18717;48.034;11.186;2022-08-19T01:37:41;19.30;;;17.42;;
32228;SDS011;18717;48.034;11.186;2022-08-19T01:40:11;18.65;;;17.05;;
32228;SDS011;18717;48.034;11.186;2022-08-19T01:42:39;19.55;;;17.85;;
32228;SDS011;18717;48.034;11.186;2022-08-19T01:45:07;20.17;;;18.40;;
32228;SDS011;18717;48.034;11.186;2022-08-19T01:47:35;19.83;;;18.13;;
32228;SDS011;18717;48.034;11.186;2022-08-19T01:50:04;19.48;;;17.77;;
32228;SDS011;18717;48.034;11.186;2022-08-19T01:52:35;18.92;;;17.08;;
32228;SDS011;18717;48.034;11.186;2022-08-19T01:55:03;18.50;;;16.92;;
32228;SDS011;18717;48.034;11.186;2022-08-19T01:57:34;17.55;;;16.15;;
32228;SDS011;18717;48.034;11.186;2022-08-19T02:00:03;16.63;;;15.43;;
32228;SDS011;18717;48.034;11.186;2022-08-19T02:02:33;17.65;;;16.15;;
32228;SDS011;18717;48.034;11.186;2022-08-19T02:05:00;17.42;;;15.85;;
32228;SDS011;18717;48.034;11.186;2022-08-19T02:07:28;16.98;;;15.48;;
32228;SDS011;18717;48.034;11.186;2022-08-19T02:09:56;17.30;;;15.55;;
32228;SDS011;18717;48.034;11.186;2022-08-19T02:12:28;17.33;;;15.93;;
32228;SDS011;18717;48.034;11.186;2022-08-19T02:14:57;16.63;;;15.43;;
32228;SDS011;18717;48.034;11.186;2022-08-19T02:17:25;16.75;;;15.07;;
32228;SDS011;18717;48.034;11.186;2022-08-19T02:19:55;16.85;;;15.65;;
32228;SDS011;18717;48.034;11.186;2022-08-19T02:22:23;15.70;;;14.40;;
32228;SDS011;18717;48.034;11.186;2022-08-19T02:24:51;16.00;;;14.55;;
32228;SDS011;18717;48.034;11.186;2022-08-19T02:27:19;16.17;;;14.88;;
32228;SDS011;18717;48.034;11.186;2022-08-19T02:29:47;16.13;;;14.82;;
32228;SDS011;18717;48.034;11.186;2022-08-19T02:32:17;18.60;;;15.13;;
32228;SDS011;18717;48.034;11.186;2022-08-19T02:34:46;16.45;;;15.15;;
32228;SDS011;18717;48.034;11.186;2022-08-19T02:37:14;16.83;;;15.52;;
32228;SDS011;18717;48.034;11.186;2022-08-19T02:40:00;16.67;;;15.48;;
32228;SDS011;18717;48.034;11.186;2022-08-19T02:42:37;16.15;;;14.95;;
32228;SDS011;18717;48.034;11.186;2022-08-19T02:45:07;16.42;;;15.23;;
32228;SDS011;18717;48.034;11.186;2022-08-19T02:47:36;16.67;;;15.48;;
32228;SDS011;18717;48.034;11.186;2022-08-19T02:50:05;17.00;;;15.57;;
32228;SDS011;18717;48.034;11.186;2022-08-19T02:52:33;17.27;;;15.88;;
32228;SDS011;18717;48.034;11.186;2022-08-19T02:55:01;16.98;;;15.57;;
32228;SDS011;18717;48.034;11.186;2022-08-19T02:57:30;16.98;;;15.40;;
32228;SDS011;18717;48.034;11.186;2022-08-19T02:59:58;17.25;;;15.65;;
32228;SDS011;18717;48.034;11.186;2022-08-19T03:02:27;17.55;;;15.90;;
32228;SDS011;18717;48.034;11.186;2022-08-19T03:04:57;17.83;;;16.02;;
32228;SDS011;18717;48.034;11.186;2022-08-19T03:07:25;16.88;;;15.57;;
32228;SDS011;18717;48.034;11.186;2022-08-19T03:09:53;18.80;;;17.20;;
32228;SDS011;18717;48.034;11.186;2022-08-19T03:12:20;16.92;;;15.63;;
32228;SDS011;18717;48.034;11.186;2022-08-19T03:14:48;17.98;;;16.42;;
32228;SDS011;18717;48.034;11.186;2022-08-19T03:17:17;17.08;;;15.73;;
32228;SDS011;18717;48.034;11.186;2022-08-19T03:19:44;17.08;;;15.75;;
32228;SDS011;18717;48.034;11.186;2022-08-19T03:22:13;16.88;;;15.43;;
32228;SDS011;18717;48.034;11.186;2022-08-19T03:24:41;18.08;;;16.58;;
32228;SDS011;18717;48.034;11.186;2022-08-19T03:27:09;16.50;;;15.20;;
32228;SDS011;18717;48.034;11.186;2022-08-19T03:29:38;16.15;;;14.82;;
32228;SDS011;18717;48.034;11.186;2022-08-19T03:32:09;16.75;;;15.40;;
32228;SDS011;18717;48.034;11.186;2022-08-19T03:34:58;16.45;;;15.27;;
32228;SDS011;18717;48.034;11.186;2022-08-19T03:37:27;21.88;;;16.25;;
32228;SDS011;18717;48.034;11.186;2022-08-19T03:39:54;16.75;;;15.55;;
32228;SDS011;18717;48.034;11.186;2022-08-19T03:42:22;16.77;;;15.38;;
32228;SDS011;18717;48.034;11.186;2022-08-19T03:45:11;17.00;;;15.55;;
32228;SDS011;18717;48.034;11.186;2022-08-19T03:47:38;17.95;;;16.45;;
32228;SDS011;18717;48.034;11.186;2022-08-19T03:50:06;17.55;;;16.13;;
32228;SDS011;18717;48.034;11.186;2022-08-19T03:52:36;17.13;;;15.77;;
32228;SDS011;18717;48.034;11.186;2022-08-19T03:55:10;16.13;;;14.73;;
32228;SDS011;18717;48.034;11.186;2022-08-19T03:57:38;16.65;;;15.25;;
32228;SDS011;18717;48.034;11.186;2022-08-19T04:00:06;18.35;;;16.65;;
32228;SDS011;18717;48.034;11.186;2022-08-19T04:02:39;18.50;;;16.63;;
32228;SDS011;18717;48.034;11.186;2022-08-19T04:05:07;19.83;;;18.02;;
32228;SDS011;18717;48.034;11.186;2022-08-19T04:07:36;18.77;;;17.17;;
32228;SDS011;18717;48.034;11.186;2022-08-19T04:10:04;17.92;;;16.25;;
32228;SDS011;18717;48.034;11.186;2022-08-19T04:12:35;18.35;;;16.75;;
32228;SDS011;18717;48.034;11.186;2022-08-19T04:15:04;17.33;;;15.82;;
32228;SDS011;18717;48.034;11.186;2022-08-19T04:17:32;19.88;;;17.98;;
32228;SDS011;18717;48.034;11.186;2022-08-19T04:20:00;20.02;;;18.38;;
32228;SDS011;18717;48.034;11.186;2022-08-19T04:22:32;19.13;;;17.40;;
32228;SDS011;18717;48.034;11.186;2022-08-19T04:25:01;18.98;;;17.17;;
32228;SDS011;18717;48.034;11.186;2022-08-19T04:27:29;18.33;;;16.73;;
32228;SDS011;18717;48.034;11.186;2022-08-19T04:29:57;20.55;;;18.48;;
32228;SDS011;18717;48.034;11.186;2022-08-19T04:32:25;20.48;;;18.50;;
32228;SDS011;18717;48.034;11.186;2022-08-19T04:34:52;22.80;;;20.50;;
32228;SDS011;18717;48.034;11.186;2022-08-19T04:37:42;22.00;;;19.83;;
32228;SDS011;18717;48.034;11.186;2022-08-19T04:40:12;21.30;;;19.13;;
32228;SDS011;18717;48.034;11.186;2022-08-19T04:42:57;20.63;;;18.52;;
32228;SDS011;18717;48.034;11.186;2022-08-19T04:45:25;23.60;;;19.83;;
32228;SDS011;18717;48.034;11.186;2022-08-19T04:47:54;22.02;;;19.92;;
32228;SDS011;18717;48.034;11.186;2022-08-19T04:50:44;24.98;;;20.05;;
32228;SDS011;18717;48.034;11.186;2022-08-19T04:53:12;22.23;;;20.02;;
32228;SDS011;18717;48.034;11.186;2022-08-19T04:55:41;23.05;;;20.70;;
32228;SDS011;18717;48.034;11.186;2022-08-19T04:58:09;22.42;;;20.10;;
32228;SDS011;18717;48.034;11.186;2022-08-19T05:00:37;23.23;;;20.88;;
32228;SDS011;18717;48.034;11.186;2022-08-19T05:03:07;24.38;;;20.02;;
32228;SDS011;18717;48.034;11.186;2022-08-19T05:05:37;23.70;;;21.30;;
32228;SDS011;18717;48.034;11.186;2022-08-19T05:08:10;23.17;;;20.83;;
32228;SDS011;18717;48.034;11.186;2022-08-19T05:10:42;27.42;;;22.02;;
32228;SDS011;18717;48.034;11.186;2022-08-19T05:13:10;24.63;;;21.90;;
32228;SDS011;18717;48.034;11.186;2022-08-19T05:15:38;23.55;;;20.00;;
32228;SDS011;18717;48.034;11.186;2022-08-19T05:18:06;23.52;;;20.75;;
32228;SDS011;18717;48.034;11.186;2022-08-19T05:20:51;23.40;;;20.67;;
32228;SDS011;18717;48.034;11.186;2022-08-19T05:23:36;24.60;;;21.48;;
32228;SDS011;18717;48.034;11.186;2022-08-19T05:26:05;23.45;;;21.25;;
32228;SDS011;18717;48.034;11.186;2022-08-19T05:28:35;23.75;;;21.25;;
32228;SDS011;18717;48.034;11.186;2022-08-19T05:31:03;24.48;;;21.50;;
32228;SDS011;18717;48.034;11.186;2022-08-19T05:33:31;23.92;;;21.45;;
32228;SDS011;18717;48.034;11.186;2022-08-19T05:35:58;23.63;;;21.23;;
32228;SDS011;18717;48.034;11.186;2022-08-19T05:38:28;23.15;;;20.67;;
32228;SDS011;18717;48.034;11.186;2022-08-19T05:40:56;22.10;;;20.15;;
32228;SDS011;18717;48.034;11.186;2022-08-19T05:43:25;21.75;;;19.52;;
32228;SDS011;18717;48.034;11.186;2022-08-19T05:45:53;22.83;;;20.42;;
32228;SDS011;18717;48.034;11.186;2022-08-19T05:48:21;22.77;;;20.55;;
32228;SDS011;18717;48.034;11.186;2022-08-19T05:50:49;22.17;;;20.00;;
32228;SDS011;18717;48.034;11.186;2022-08-19T05:53:17;24.00;;;21.40;;
32228;SDS011;18717;48.034;11.186;2022-08-19T05:55:45;21.63;;;19.52;;
32228;SDS011;18717;48.034;11.186;2022-08-19T05:58:13;21.70;;;19.42;;
32228;SDS011;18717;48.034;11.186;2022-08-19T06:00:42;20.98;;;18.98;;
32228;SDS011;18717;48.034;11.186;2022-08-19T06:03:11;22.95;;;20.83;;
32228;SDS011;18717;48.034;11.186;2022-08-19T06:05:39;22.63;;;20.45;;
32228;SDS011;18717;48.034;11.186;2022-08-19T06:08:17;22.75;;;20.65;;
32228;SDS011;18717;48.034;11.186;2022-08-19T06:10:59;22.25;;;20.05;;
32228;SDS011;18717;48.034;11.186;2022-08-19T06:13:41;29.05;;;22.38;;
32228;SDS011;18717;48.034;11.186;2022-08-19T06:16:10;23.02;;;20.33;;
32228;SDS011;18717;48.034;11.186;2022-08-19T06:18:37;25.40;;;22.63;;
32228;SDS011;18717;48.034;11.186;2022-08-19T06:21:05;24.65;;;22.17;;
32228;SDS011;18717;48.034;11.186;2022-08-19T06:23:33;26.58;;;23.88;;
32228;SDS011;18717;48.034;11.186;2022-08-19T06:26:01;27.92;;;24.77;;
32228;SDS011;18717;48.034;11.186;2022-08-19T06:28:28;31.05;;;24.63;;
32228;SDS011;18717;48.034;11.186;2022-08-19T06:30:56;26.33;;;23.50;;
32228;SDS011;18717;48.034;11.186;2022-08-19T06:33:25;28.98;;;25.13;;
32228;SDS011;18717;48.034;11.186;2022-08-19T06:35:55;26.50;;;23.77;;
32228;SDS011;18717;48.034;11.186;2022-08-19T06:38:23;27.98;;;24.98;;
32228;SDS011;18717;48.034;11.186;2022-08-19T06:40:51;28.40;;;25.33;;
32228;SDS011;18717;48.034;11.186;2022-08-19T06:43:18;27.02;;;24.17;;
32228;SDS011;18717;48.034;11.186;2022-08-19T06:45:53;30.10;;;25.92;;
32228;SDS011;18717;48.034;11.186;2022-08-19T06:48:21;33.58;;;26.25;;
32228;SDS011;18717;48.034;11.186;2022-08-19T06:50:52;29.38;;;24.42;;
32228;SDS011;18717;48.034;11.186;2022-08-19T06:53:20;30.63;;;26.55;;
32228;SDS011;18717;48.034;11.186;2022-08-19T06:55:48;38.55;;;28.63;;
32228;SDS011;18717;48.034;11.186;2022-08-19T06:58:23;37.75;;;30.00;;
32228;SDS011;18717;48.034;11.186;2022-08-19T07:00:51;39.28;;;30.58;;
32228;SDS011;18717;48.034;11.186;2022-08-19T07:03:19;39.20;;;29.85;;
32228;SDS011;18717;48.034;11.186;2022-08-19T07:05:47;39.63;;;29.27;;
32228;SDS011;18717;48.034;11.186;2022-08-19T07:08:16;40.97;;;31.33;;
32228;SDS011;18717;48.034;11.186;2022-08-19T07:10:44;44.92;;;30.55;;
32228;SDS011;18717;48.034;11.186;2022-08-19T07:13:13;40.95;;;27.92;;
32228;SDS011;18717;48.034;11.186;2022-08-19T07:15:41;42.00;;;31.65;;
32228;SDS011;18717;48.034;11.186;2022-08-19T07:18:08;44.78;;;29.92;;
32228;SDS011;18717;48.034;11.186;2022-08-19T07:20:37;45.90;;;30.50;;
32228;SDS011;18717;48.034;11.186;2022-08-19T07:23:07;44.58;;;30.73;;
32228;SDS011;18717;48.034;11.186;2022-08-19T07:25:44;44.38;;;32.60;;
32228;SDS011;18717;48.034;11.186;2022-08-19T07:28:18;45.28;;;30.70;;
32228;SDS011;18717;48.034;11.186;2022-08-19T07:30:50;47.30;;;34.17;;
32228;SDS011;18717;48.034;11.186;2022-08-19T07:33:18;48.20;;;32.38;;
32228;SDS011;18717;48.034;11.186;2022-08-19T07:35:45;47.08;;;32.42;;
32228;SDS011;18717;48.034;11.186;2022-08-19T07:38:13;45.95;;;32.38;;
32228;SDS011;18717;48.034;11.186;2022-08-19T07:40:44;50.95;;;35.33;;
32228;SDS011;18717;48.034;11.186;2022-08-19T07:43:12;50.58;;;35.13;;
32228;SDS011;18717;48.034;11.186;2022-08-19T07:45:43;51.40;;;34.42;;
32228;SDS011;18717;48.034;11.186;2022-08-19T07:48:12;56.85;;;34.17;;
32228;SDS011;18717;48.034;11.186;2022-08-19T07:50:40;58.05;;;35.33;;
32228;SDS011;18717;48.034;11.186;2022-08-19T07:53:08;51.03;;;35.65;;
32228;SDS011;18717;48.034;11.186;2022-08-19T07:55:36;49.60;;;32.88;;
32228;SDS011;18717;48.034;11.186;2022-08-19T07:58:10;54.97;;;35.25;;
32228;SDS011;18717;48.034;11.186;2022-08-19T08:00:38;47.53;;;32.60;;
32228;SDS011;18717;48.034;11.186;2022-08-19T08:03:06;53.75;;;35.60;;
32228;SDS011;18717;48.034;11.186;2022-08-19T08:05:34;53.10;;;34.80;;
32228;SDS011;18717;48.034;11.186;2022-08-19T08:08:19;50.55;;;33.42;;
32228;SDS011;18717;48.034;11.186;2022-08-19T08:11:14;55.85;;;37.22;;
32228;SDS011;18717;48.034;11.186;2022-08-19T08:13:45;47.38;;;33.15;;
32228;SDS011;18717;48.034;11.186;2022-08-19T08:16:29;50.40;;;35.95;;
32228;SDS011;18717;48.034;11.186;2022-08-19T08:18:57;49.35;;;33.60;;
32228;SDS011;18717;48.034;11.186;2022-08-19T08:21:26;52.78;;;32.83;;
32228;SDS011;18717;48.034;11.186;2022-08-19T08:23:54;47.05;;;34.63;;
32228;SDS011;18717;48.034;11.186;2022-08-19T08:26:22;49.35;;;35.38;;
32228;SDS011;18717;48.034;11.186;2022-08-19T08:28:52;58.03;;;37.83;;
32228;SDS011;18717;48.034;11.186;2022-08-19T08:31:20;47.22;;;33.78;;
32228;SDS011;18717;48.034;11.186;2022-08-19T08:33:49;50.13;;;34.72;;
32228;SDS011;18717;48.034;11.186;2022-08-19T08:36:17;47.13;;;34.67;;
32228;SDS011;18717;48.034;11.186;2022-08-19T08:38:45;49.22;;;34.53;;
32228;SDS011;18717;48.034;11.186;2022-08-19T08:41:16;51.58;;;35.22;;
32228;SDS011;18717;48.034;11.186;2022-08-19T08:43:48;48.47;;;32.63;;
32228;SDS011;18717;48.034;11.186;2022-08-19T08:46:21;50.00;;;35.05;;
32228;SDS011;18717;48.034;11.186;2022-08-19T08:48:59;49.63;;;33.08;;
32228;SDS011;18717;48.034;11.186;2022-08-19T08:51:32;49.15;;;34.47;;
32228;SDS011;18717;48.034;11.186;2022-08-19T08:54:02;52.95;;;33.80;;
32228;SDS011;18717;48.034;11.186;2022-08-19T08:56:36;42.17;;;32.63;;
32228;SDS011;18717;48.034;11.186;2022-08-19T08:59:05;50.92;;;33.33;;
32228;SDS011;18717;48.034;11.186;2022-08-19T09:01:49;45.25;;;32.20;;
32228;SDS011;18717;48.034;11.186;2022-08-19T09:04:17;39.92;;;29.50;;
32228;SDS011;18717;48.034;11.186;2022-08-19T09:06:48;39.95;;;30.48;;
32228;SDS011;18717;48.034;11.186;2022-08-19T09:09:20;39.50;;;28.70;;
32228;SDS011;18717;48.034;11.186;2022-08-19T09:11:59;37.90;;;28.30;;
32228;SDS011;18717;48.034;11.186;2022-08-19T09:14:38;37.90;;;28.73;;
32228;SDS011;18717;48.034;11.186;2022-08-19T09:17:18;36.05;;;27.83;;
32228;SDS011;18717;48.034;11.186;2022-08-19T09:19:58;40.63;;;28.95;;
32228;SDS011;18717;48.034;11.186;2022-08-19T09:22:30;35.50;;;26.60;;
32228;SDS011;18717;48.034;11.186;2022-08-19T09:24:58;32.17;;;27.10;;
32228;SDS011;18717;48.034;11.186;2022-08-19T09:27:26;33.28;;;26.92;;
32228;SDS011;18717;48.034;11.186;2022-08-19T09:30:09;32.63;;;26.03;;
32228;SDS011;18717;48.034;11.186;2022-08-19T09:32:40;32.80;;;25.40;;
32228;SDS011;18717;48.034;11.186;2022-08-19T09:35:09;32.75;;;26.13;;
32228;SDS011;18717;48.034;11.186;2022-08-19T09:37:37;31.27;;;24.67;;
32228;SDS011;18717;48.034;11.186;2022-08-19T09:40:06;28.75;;;24.70;;
32228;SDS011;18717;48.034;11.186;2022-08-19T09:42:37;30.20;;;25.02;;
32228;SDS011;18717;48.034;11.186;2022-08-19T09:45:16;34.03;;;26.23;;
32228;SDS011;18717;48.034;11.186;2022-08-19T09:47:48;30.43;;;24.57;;
32228;SDS011;18717;48.034;11.186;2022-08-19T09:52:47;37.88;;;27.85;;
32228;SDS011;18717;48.034;11.186;2022-08-19T09:55:22;32.15;;;26.13;;
32228;SDS011;18717;48.034;11.186;2022-08-19T09:57:57;36.00;;;25.88;;
32228;SDS011;18717;48.034;11.186;2022-08-19T10:00:25;31.30;;;25.67;;
32228;SDS011;18717;48.034;11.186;2022-08-19T10:02:55;33.45;;;27.05;;
32228;SDS011;18717;48.034;11.186;2022-08-19T10:05:22;31.98;;;25.75;;
32228;SDS011;18717;48.034;11.186;2022-08-19T10:08:08;41.45;;;29.35;;
32228;SDS011;18717;48.034;11.186;2022-08-19T10:10:39;34.70;;;29.60;;
32228;SDS011;18717;48.034;11.186;2022-08-19T10:13:11;42.72;;;30.67;;
32228;SDS011;18717;48.034;11.186;2022-08-19T10:15:39;41.72;;;30.25;;
32228;SDS011;18717;48.034;11.186;2022-08-19T10:18:14;45.92;;;31.98;;
32228;SDS011;18717;48.034;11.186;2022-08-19T10:20:44;43.20;;;31.67;;
32228;SDS011;18717;48.034;11.186;2022-08-19T10:23:17;43.58;;;31.35;;
32228;SDS011;18717;48.034;11.186;2022-08-19T10:25:46;44.70;;;32.95;;
32228;SDS011;18717;48.034;11.186;2022-08-19T10:28:14;47.78;;;31.75;;
32228;SDS011;18717;48.034;11.186;2022-08-19T10:30:45;43.70;;;30.63;;
32228;SDS011;18717;48.034;11.186;2022-08-19T10:33:14;45.47;;;32.15;;
32228;SDS011;18717;48.034;11.186;2022-08-19T10:36:03;48.38;;;34.05;;
32228;SDS011;18717;48.034;11.186;2022-08-19T10:38:33;43.97;;;31.05;;
32228;SDS011;18717;48.034;11.186;2022-08-19T10:41:08;52.00;;;32.90;;
32228;SDS011;18717;48.034;11.186;2022-08-19T10:43:37;49.70;;;33.53;;
32228;SDS011;18717;48.034;11.186;2022-08-19T10:46:06;44.75;;;31.65;;
32228;SDS011;18717;48.034;11.186;2022-08-19T10:48:43;50.95;;;33.17;;
32228;SDS011;18717;48.034;11.186;2022-08-19T10:51:11;49.88;;;32.70;;
32228;SDS011;18717;48.034;11.186;2022-08-19T10:53:57;41.50;;;31.45;;
32228;SDS011;18717;48.034;11.186;2022-08-19T10:56:25;39.65;;;27.58;;
32228;SDS011;18717;48.034;11.186;2022-08-19T10:59:11;39.38;;;28.80;;
32228;SDS011;18717;48.034;11.186;2022-08-19T11:01:40;48.83;;;32.58;;
32228;SDS011;18717;48.034;11.186;2022-08-19T11:04:10;45.05;;;32.72;;
32228;SDS011;18717;48.034;11.186;2022-08-19T11:06:39;37.20;;;28.63;;
32228;SDS011;18717;48.034;11.186;2022-08-19T11:09:09;36.92;;;27.05;;
32228;SDS011;18717;48.034;11.186;2022-08-19T11:11:38;38.33;;;27.05;;
32228;SDS011;18717;48.034;11.186;2022-08-19T11:14:07;34.95;;;27.05;;
32228;SDS011;18717;48.034;11.186;2022-08-19T11:16:35;32.88;;;26.88;;
32228;SDS011;18717;48.034;11.186;2022-08-19T11:19:04;30.50;;;25.88;;
32228;SDS011;18717;48.034;11.186;2022-08-19T11:21:36;27.92;;;24.27;;
32228;SDS011;18717;48.034;11.186;2022-08-19T11:24:07;30.88;;;25.33;;
32228;SDS011;18717;48.034;11.186;2022-08-19T11:26:36;29.95;;;24.25;;
32228;SDS011;18717;48.034;11.186;2022-08-19T11:29:06;22.75;;;20.35;;
32228;SDS011;18717;48.034;11.186;2022-08-19T11:31:38;21.75;;;19.75;;
32228;SDS011;18717;48.034;11.186;2022-08-19T11:34:07;20.75;;;18.83;;
32228;SDS011;18717;48.034;11.186;2022-08-19T11:36:38;19.13;;;17.35;;
32228;SDS011;18717;48.034;11.186;2022-08-19T11:39:11;18.75;;;17.15;;
32228;SDS011;18717;48.034;11.186;2022-08-19T11:41:40;18.65;;;17.05;;
32228;SDS011;18717;48.034;11.186;2022-08-19T11:44:07;17.70;;;16.05;;
32228;SDS011;18717;48.034;11.186;2022-08-19T11:46:36;15.82;;;14.63;;
32228;SDS011;18717;48.034;11.186;2022-08-19T11:49:05;16.58;;;15.20;;
32228;SDS011;18717;48.034;11.186;2022-08-19T11:51:40;16.85;;;15.65;;
32228;SDS011;18717;48.034;11.186;2022-08-19T11:54:10;16.48;;;15.15;;
32228;SDS011;18717;48.034;11.186;2022-08-19T11:56:39;16.02;;;14.93;;
32228;SDS011;18717;48.034;11.186;2022-08-19T11:59:07;16.50;;;15.23;;
32228;SDS011;18717;48.034;11.186;2022-08-19T12:01:40;15.15;;;14.15;;
32228;SDS011;18717;48.034;11.186;2022-08-19T12:04:09;15.20;;;14.20;;
32228;SDS011;18717;48.034;11.186;2022-08-19T12:06:38;13.63;;;12.55;;
32228;SDS011;18717;48.034;11.186;2022-08-19T12:09:09;13.35;;;12.55;;
32228;SDS011;18717;48.034;11.186;2022-08-19T12:11:37;12.82;;;12.07;;
32228;SDS011;18717;48.034;11.186;2022-08-19T12:14:05;12.40;;;11.70;;
32228;SDS011;18717;48.034;11.186;2022-08-19T12:16:40;12.60;;;11.90;;
32228;SDS011;18717;48.034;11.186;2022-08-19T12:19:17;11.90;;;11.25;;
32228;SDS011;18717;48.034;11.186;2022-08-19T12:21:47;12.73;;;11.93;;
32228;SDS011;18717;48.034;11.186;2022-08-19T12:24:17;12.93;;;12.07;;
32228;SDS011;18717;48.034;11.186;2022-08-19T12:26:49;12.57;;;11.88;;
32228;SDS011;18717;48.034;11.186;2022-08-19T12:29:18;12.30;;;11.50;;
32228;SDS011;18717;48.034;11.186;2022-08-19T12:31:49;13.25;;;12.48;;
32228;SDS011;18717;48.034;11.186;2022-08-19T12:34:17;12.75;;;12.05;;
32228;SDS011;18717;48.034;11.186;2022-08-19T12:36:46;14.10;;;13.25;;
32228;SDS011;18717;48.034;11.186;2022-08-19T12:39:17;14.32;;;13.32;;
32228;SDS011;18717;48.034;11.186;2022-08-19T12:41:44;13.43;;;12.68;;
32228;SDS011;18717;48.034;11.186;2022-08-19T12:44:19;13.43;;;12.63;;
32228;SDS011;18717;48.034;11.186;2022-08-19T12:46:54;14.15;;;13.15;;
32228;SDS011;18717;48.034;11.186;2022-08-19T12:49:22;14.82;;;13.57;;
32228;SDS011;18717;48.034;11.186;2022-08-19T12:52:11;14.63;;;13.75;;
32228;SDS011;18717;48.034;11.186;2022-08-19T12:54:43;14.85;;;13.85;;
32228;SDS011;18717;48.034;11.186;2022-08-19T12:57:10;14.13;;;13.20;;
32228;SDS011;18717;48.034;11.186;2022-08-19T12:59:38;14.20;;;13.20;;
32228;SDS011;18717;48.034;11.186;2022-08-19T13:02:07;14.90;;;14.00;;
32228;SDS011;18717;48.034;11.186;2022-08-19T13:04:35;14.32;;;13.43;;
32228;SDS011;18717;48.034;11.186;2022-08-19T13:07:06;14.87;;;13.97;;
32228;SDS011;18717;48.034;11.186;2022-08-19T13:09:35;14.80;;;13.90;;
32228;SDS011;18717;48.034;11.186;2022-08-19T13:12:04;13.65;;;12.85;;
32228;SDS011;18717;48.034;11.186;2022-08-19T13:14:34;13.32;;;12.52;;
32228;SDS011;18717;48.034;11.186;2022-08-19T13:17:04;13.93;;;13.23;;
32228;SDS011;18717;48.034;11.186;2022-08-19T13:19:31;12.85;;;12.20;;
32228;SDS011;18717;48.034;11.186;2022-08-19T13:21:59;14.13;;;13.32;;
32228;SDS011;18717;48.034;11.186;2022-08-19T13:24:27;12.73;;;12.02;;
32228;SDS011;18717;48.034;11.186;2022-08-19T13:26:59;12.77;;;11.88;;
32228;SDS011;18717;48.034;11.186;2022-08-19T13:29:28;12.55;;;11.93;;
32228;SDS011;18717;48.034;11.186;2022-08-19T13:32:13;12.38;;;11.77;;
32228;SDS011;18717;48.034;11.186;2022-08-19T13:34:59;12.70;;;11.93;;
32228;SDS011;18717;48.034;11.186;2022-08-19T13:37:27;11.68;;;11.13;;
32228;SDS011;18717;48.034;11.186;2022-08-19T13:40:09;11.40;;;10.80;;
32228;SDS011;18717;48.034;11.186;2022-08-19T13:42:39;12.05;;;11.48;;
32228;SDS011;18717;48.034;11.186;2022-08-19T13:45:08;12.50;;;11.90;;
32228;SDS011;18717;48.034;11.186;2022-08-19T13:47:36;12.55;;;11.85;;
32228;SDS011;18717;48.034;11.186;2022-08-19T13:50:08;11.90;;;11.38;;
32228;SDS011;18717;48.034;11.186;2022-08-19T13:52:37;12.07;;;11.48;;
32228;SDS011;18717;48.034;11.186;2022-08-19T13:55:05;11.88;;;11.27;;
32228;SDS011;18717;48.034;11.186;2022-08-19T13:57:33;11.60;;;11.10;;
32228;SDS011;18717;48.034;11.186;2022-08-19T14:00:07;12.00;;;11.40;;
32228;SDS011;18717;48.034;11.186;2022-08-19T14:02:37;12.18;;;11.45;;
32228;SDS011;18717;48.034;11.186;2022-08-19T14:05:06;12.55;;;11.95;;
32228;SDS011;18717;48.034;11.186;2022-08-19T14:07:36;12.27;;;11.68;;
32228;SDS011;18717;48.034;11.186;2022-08-19T14:10:04;13.55;;;12.85;;
32228;SDS011;18717;48.034;11.186;2022-08-19T14:12:33;13.23;;;12.52;;
32228;SDS011;18717;48.034;11.186;2022-08-19T14:15:02;13.70;;;12.90;;
32228;SDS011;18717;48.034;11.186;2022-08-19T14:17:31;13.30;;;12.55;;
32228;SDS011;18717;48.034;11.186;2022-08-19T14:20:02;12.82;;;12.13;;
32228;SDS011;18717;48.034;11.186;2022-08-19T14:22:37;15.38;;;14.40;;
32228;SDS011;18717;48.034;11.186;2022-08-19T14:25:07;14.82;;;14.02;;
32228;SDS011;18717;48.034;11.186;2022-08-19T14:27:37;14.57;;;13.68;;
32228;SDS011;18717;48.034;11.186;2022-08-19T14:30:07;14.93;;;14.10;;
32228;SDS011;18717;48.034;11.186;2022-08-19T14:32:37;15.27;;;14.38;;
32228;SDS011;18717;48.034;11.186;2022-08-19T14:35:05;14.90;;;14.10;;